createdAt,value
2022-11-05T00:01:50.725Z,10.00
2022-11-05T00:04:36.015Z,10.00
2022-11-05T00:07:27.583Z,10.00
2022-11-05T00:09:56.620Z,10.00
2022-11-05T00:12:42.108Z,10.00
2022-11-05T00:15:27.996Z,10.00
2022-11-05T00:17:54.865Z,10.00
2022-11-05T00:20:21.753Z,10.00
2022-11-05T00:23:07.422Z,10.00
2022-11-05T00:25:34.807Z,10.00
2022-11-05T00:28:02.313Z,10.00
2022-11-05T00:30:29.829Z,10.00
2022-11-05T00:33:00.424Z,10.00
2022-11-05T00:35:27.480Z,10.00
2022-11-05T00:37:54.359Z,10.00
2022-11-05T00:40:21.600Z,10.00
2022-11-05T00:43:06.903Z,10.00
2022-11-05T00:45:33.915Z,10.00
2022-11-05T00:48:19.297Z,10.00
2022-11-05T00:50:46.359Z,10.00
2022-11-05T00:53:13.630Z,10.00
2022-11-05T00:55:42.024Z,10.10
2022-11-05T00:58:19.016Z,10.10
2022-11-05T01:00:53.607Z,10.00
2022-11-05T01:03:21.964Z,10.00
2022-11-05T01:05:53.531Z,10.00
2022-11-05T01:08:21.129Z,10.00
2022-11-05T01:10:49.431Z,10.00
2022-11-05T01:13:18.666Z,10.00
2022-11-05T01:15:46.375Z,10.00
2022-11-05T01:18:13.685Z,10.10
2022-11-05T01:20:40.570Z,10.10
2022-11-05T01:23:12.116Z,10.10
2022-11-05T01:25:40.811Z,10.10
2022-11-05T01:28:09.772Z,10.10
2022-11-05T01:30:37.068Z,10.10
2022-11-05T01:33:04.288Z,10.10
2022-11-05T01:35:31.550Z,10.00
2022-11-05T01:37:58.389Z,10.10
2022-11-05T01:40:25.446Z,10.10
2022-11-05T01:42:52.329Z,10.10
2022-11-05T01:45:19.339Z,10.10
2022-11-05T01:47:51.212Z,10.00
2022-11-05T01:50:18.142Z,10.00
2022-11-05T01:52:45.661Z,10.10
2022-11-05T01:55:13.735Z,10.10
2022-11-05T01:57:40.813Z,10.10
2022-11-05T02:00:07.853Z,10.10
2022-11-05T02:02:34.930Z,10.10
2022-11-05T02:05:03.702Z,10.10
2022-11-05T02:07:31.092Z,10.10
2022-11-05T02:10:11.413Z,10.00
2022-11-05T02:12:39.633Z,10.10
2022-11-05T02:15:06.806Z,10.00
2022-11-05T02:17:36.721Z,10.00
2022-11-05T02:20:23.753Z,10.00
2022-11-05T02:22:59.772Z,10.10
2022-11-05T02:25:45.343Z,10.00
2022-11-05T02:28:30.402Z,10.10
2022-11-05T02:31:02.940Z,10.00
2022-11-05T02:33:38.525Z,10.00
2022-11-05T02:36:25.058Z,10.10
2022-11-05T02:39:03.511Z,10.10
2022-11-05T02:41:33.597Z,10.10
2022-11-05T02:44:03.366Z,10.10
2022-11-05T02:46:42.277Z,10.10
2022-11-05T02:49:18.129Z,10.10
2022-11-05T02:51:49.948Z,10.10
2022-11-05T02:54:21.047Z,10.10
2022-11-05T02:56:50.263Z,10.10
2022-11-05T02:59:17.161Z,10.10
2022-11-05T03:01:45.453Z,10.10
2022-11-05T03:04:14.139Z,10.10
2022-11-05T03:06:59.443Z,10.10
2022-11-05T03:09:26.367Z,10.10
2022-11-05T03:12:08.226Z,10.10
2022-11-05T03:14:40.628Z,10.10
2022-11-05T03:17:22.640Z,10.10
2022-11-05T03:20:06.991Z,10.10
2022-11-05T03:22:38.905Z,10.10
2022-11-05T03:25:08.453Z,10.20
2022-11-05T03:27:37.264Z,10.20
2022-11-05T03:30:09.245Z,10.20
2022-11-05T03:32:38.811Z,10.10
2022-11-05T03:35:08.757Z,10.10
2022-11-05T03:37:37.579Z,10.10
2022-11-05T03:40:06.575Z,10.10
2022-11-05T03:42:35.486Z,10.10
2022-11-05T03:45:06.068Z,10.20
2022-11-05T03:47:37.306Z,10.10
2022-11-05T03:50:04.067Z,10.10
2022-11-05T03:52:33.768Z,10.10
2022-11-05T03:55:00.774Z,10.10
2022-11-05T03:57:30.163Z,10.10
2022-11-05T03:59:57.325Z,10.10
2022-11-05T04:02:26.051Z,10.10
2022-11-05T04:04:53.553Z,10.10
2022-11-05T04:07:39.211Z,10.10
2022-11-05T04:10:24.918Z,10.20
2022-11-05T04:13:10.921Z,10.10
2022-11-05T04:15:56.429Z,10.10
2022-11-05T04:18:23.286Z,10.10
2022-11-05T04:21:08.763Z,10.10
2022-11-05T04:23:54.351Z,10.10
2022-11-05T04:26:23.878Z,10.10
2022-11-05T04:29:09.692Z,10.10
2022-11-05T04:31:37.023Z,10.00
2022-11-05T04:34:03.902Z,10.10
2022-11-05T04:36:30.863Z,10.00
2022-11-05T04:38:57.810Z,10.00
2022-11-05T04:41:24.649Z,10.00
2022-11-05T04:43:51.564Z,9.90
2022-11-05T04:46:18.843Z,9.90
2022-11-05T04:48:45.604Z,9.80
2022-11-05T04:51:12.670Z,9.80
2022-11-05T04:53:39.489Z,9.80
2022-11-05T04:56:10.459Z,9.90
2022-11-05T04:58:41.247Z,9.90
2022-11-05T05:01:12.142Z,9.80
2022-11-05T05:03:39.318Z,9.90
2022-11-05T05:06:06.217Z,9.80
2022-11-05T05:08:33.088Z,9.80
2022-11-05T05:11:07.114Z,9.80
2022-11-05T05:13:34.423Z,9.80
2022-11-05T05:16:04.865Z,9.80
2022-11-05T05:18:31.968Z,9.80
2022-11-05T05:21:17.402Z,9.80
2022-11-05T05:23:44.559Z,9.80
2022-11-05T05:26:11.538Z,9.80
2022-11-05T05:28:38.395Z,9.80
2022-11-05T05:31:05.261Z,9.80
2022-11-05T05:33:32.103Z,9.80
2022-11-05T05:35:59.345Z,9.80
2022-11-05T05:38:26.178Z,9.80
2022-11-05T05:40:57.147Z,9.80
2022-11-05T05:43:23.934Z,9.80
2022-11-05T05:45:50.922Z,9.70
2022-11-05T05:48:17.866Z,9.70
2022-11-05T05:50:44.739Z,9.70
2022-11-05T05:53:11.961Z,9.70
2022-11-05T05:55:39.007Z,9.70
2022-11-05T05:58:05.880Z,9.70
2022-11-05T06:00:32.861Z,9.70
2022-11-05T06:02:59.691Z,9.70
2022-11-05T06:05:26.651Z,9.70
2022-11-05T06:07:57.104Z,9.70
2022-11-05T06:10:24.395Z,9.70
2022-11-05T06:12:51.483Z,9.70
2022-11-05T06:15:18.655Z,9.70
2022-11-05T06:17:45.870Z,9.70
2022-11-05T06:20:13.190Z,9.60
2022-11-05T06:22:40.231Z,9.70
2022-11-05T06:25:07.371Z,9.70
2022-11-05T06:27:34.263Z,9.70
2022-11-05T06:30:01.338Z,9.70
2022-11-05T06:32:28.093Z,9.70
2022-11-05T06:34:55.098Z,9.70
2022-11-05T06:37:22.072Z,9.70
2022-11-05T06:39:48.895Z,9.70
2022-11-05T06:42:18.757Z,9.70
2022-11-05T06:44:46.396Z,9.60
2022-11-05T06:47:13.218Z,9.60
2022-11-05T06:49:40.079Z,9.70
2022-11-05T06:52:06.914Z,9.60
2022-11-05T06:54:33.716Z,9.60
2022-11-05T06:57:00.538Z,9.60
2022-11-05T06:59:27.435Z,9.60
2022-11-05T07:01:54.580Z,9.60
2022-11-05T07:04:21.519Z,9.60
2022-11-05T07:06:48.479Z,9.60
2022-11-05T07:09:15.326Z,9.60
2022-11-05T07:11:42.253Z,9.60
2022-11-05T07:14:09.064Z,9.60
2022-11-05T07:16:35.885Z,9.60
2022-11-05T07:19:03.034Z,9.60
2022-11-05T07:21:29.843Z,9.70
2022-11-05T07:23:56.920Z,9.70
2022-11-05T07:26:23.765Z,9.70
2022-11-05T07:28:50.602Z,9.70
2022-11-05T07:31:17.456Z,9.70
2022-11-05T07:33:44.426Z,9.70
2022-11-05T07:36:11.251Z,9.70
2022-11-05T07:38:38.464Z,9.70
2022-11-05T07:41:05.297Z,9.70
2022-11-05T07:43:32.196Z,9.60
2022-11-05T07:45:59.542Z,9.60
2022-11-05T07:48:26.337Z,9.60
2022-11-05T07:50:53.444Z,9.60
2022-11-05T07:53:21.299Z,9.60
2022-11-05T07:55:48.395Z,9.60
2022-11-05T07:58:15.213Z,9.50
2022-11-05T08:00:42.481Z,9.50
2022-11-05T08:03:14.257Z,9.50
2022-11-05T08:05:44.805Z,9.50
2022-11-05T08:08:15.774Z,9.50
2022-11-05T08:10:42.831Z,9.40
2022-11-05T08:13:10.675Z,9.40
2022-11-05T08:15:37.902Z,9.50
2022-11-05T08:18:06.614Z,9.40
2022-11-05T08:20:34.024Z,9.40
2022-11-05T08:23:00.988Z,9.40
2022-11-05T08:25:28.152Z,9.40
2022-11-05T08:27:56.103Z,9.30
2022-11-05T08:30:23.150Z,9.30
2022-11-05T08:32:50.277Z,9.40
2022-11-05T08:35:17.289Z,9.30
2022-11-05T08:37:44.172Z,9.30
2022-11-05T08:40:11.461Z,9.30
2022-11-05T08:42:38.336Z,9.30
2022-11-05T08:45:05.328Z,9.30
2022-11-05T08:47:32.341Z,9.30
2022-11-05T08:49:59.609Z,9.30
2022-11-05T08:52:26.816Z,9.30
2022-11-05T08:54:53.918Z,9.30
2022-11-05T08:57:20.770Z,9.30
2022-11-05T08:59:47.557Z,9.30
2022-11-05T09:02:14.809Z,9.30
2022-11-05T09:04:41.942Z,9.30
2022-11-05T09:07:09.212Z,9.30
2022-11-05T09:09:36.061Z,9.40
2022-11-05T09:12:12.430Z,9.40
2022-11-05T09:14:39.889Z,9.40
2022-11-05T09:17:13.516Z,9.40
2022-11-05T09:19:40.467Z,9.40
2022-11-05T09:22:07.516Z,9.30
2022-11-05T09:24:34.280Z,9.30
2022-11-05T09:27:01.271Z,9.30
2022-11-05T09:29:28.436Z,9.30
2022-11-05T09:31:55.242Z,9.30
2022-11-05T09:34:22.156Z,9.30
2022-11-05T09:36:48.936Z,9.40
2022-11-05T09:39:15.877Z,9.40
2022-11-05T09:41:43.671Z,9.40
2022-11-05T09:44:16.141Z,9.40
2022-11-05T09:46:48.237Z,9.40
2022-11-05T09:49:26.613Z,9.40
2022-11-05T09:51:54.683Z,9.30
2022-11-05T09:54:26.011Z,9.30
2022-11-05T09:56:54.354Z,9.30
2022-11-05T09:59:33.407Z,9.30
2022-11-05T10:02:12.348Z,9.30
2022-11-05T10:04:39.655Z,9.30
2022-11-05T10:07:07.460Z,9.30
2022-11-05T10:10:00.687Z,9.30
2022-11-05T10:12:32.241Z,9.40
2022-11-05T10:14:59.112Z,9.40
2022-11-05T10:17:26.826Z,9.40
2022-11-05T10:19:56.623Z,9.40
2022-11-05T10:22:24.658Z,9.40
2022-11-05T10:24:52.617Z,9.30
2022-11-05T10:27:23.552Z,9.30
2022-11-05T10:29:50.850Z,9.30
2022-11-05T10:32:21.792Z,9.30
2022-11-05T10:34:49.616Z,9.30
2022-11-05T10:37:16.755Z,9.30
2022-11-05T10:39:43.612Z,9.30
2022-11-05T10:42:23.262Z,9.30
2022-11-05T10:44:53.805Z,9.30
2022-11-05T10:47:31.956Z,9.30
2022-11-05T10:50:00.367Z,9.30
2022-11-05T10:52:31.933Z,9.30
2022-11-05T10:55:02.289Z,9.30
2022-11-05T10:57:36.559Z,9.30
2022-11-05T11:00:18.691Z,9.30
2022-11-05T11:02:50.532Z,9.30
2022-11-05T11:05:22.340Z,9.30
2022-11-05T11:08:04.512Z,9.30
2022-11-05T11:10:33.621Z,9.40
2022-11-05T11:13:00.470Z,9.40
2022-11-05T11:15:28.869Z,9.40
2022-11-05T11:17:56.502Z,9.40
2022-11-05T11:20:28.426Z,9.40
2022-11-05T11:23:04.418Z,9.40
2022-11-05T11:25:49.957Z,9.40
2022-11-05T11:28:29.681Z,9.40
2022-11-05T11:31:07.812Z,9.40
2022-11-05T11:33:35.269Z,9.40
2022-11-05T11:36:02.625Z,9.40
2022-11-05T11:38:30.679Z,9.50
2022-11-05T11:41:03.789Z,9.50
2022-11-05T11:43:33.902Z,9.50
2022-11-05T11:46:06.043Z,9.40
2022-11-05T11:48:35.407Z,9.50
2022-11-05T11:51:15.756Z,9.40
2022-11-05T11:53:42.988Z,9.50
2022-11-05T11:56:18.422Z,9.50
2022-11-05T11:58:48.406Z,9.50
2022-11-05T12:01:30.653Z,9.50
2022-11-05T12:04:16.700Z,9.60
2022-11-05T12:06:52.712Z,9.60
2022-11-05T12:09:19.559Z,9.60
2022-11-05T12:11:50.738Z,9.60
2022-11-05T12:14:23.825Z,9.70
2022-11-05T12:17:02.942Z,9.70
2022-11-05T12:19:41.686Z,9.70
2022-11-05T12:22:08.480Z,9.70
2022-11-05T12:24:52.109Z,9.80
2022-11-05T12:27:18.876Z,9.70
2022-11-05T12:29:48.588Z,9.70
2022-11-05T12:32:24.376Z,9.70
2022-11-05T12:35:09.875Z,9.70
2022-11-05T12:37:39.674Z,9.70
2022-11-05T12:40:18.427Z,9.70
2022-11-05T12:43:10.495Z,9.70
2022-11-05T12:45:38.631Z,9.70
2022-11-05T12:48:11.571Z,9.60
2022-11-05T12:50:47.149Z,9.70
2022-11-05T12:53:14.174Z,9.60
2022-11-05T12:55:48.316Z,9.60
2022-11-05T12:58:34.304Z,9.60
2022-11-05T13:01:07.425Z,9.60
2022-11-05T13:03:37.392Z,9.60
2022-11-05T13:06:06.124Z,9.60
2022-11-05T13:08:36.303Z,9.70
2022-11-05T13:11:21.740Z,9.70
2022-11-05T13:13:48.521Z,9.70
2022-11-05T13:16:19.946Z,9.70
2022-11-05T13:18:52.543Z,9.70
2022-11-05T13:21:23.369Z,9.70
2022-11-05T13:23:53.528Z,9.70
2022-11-05T13:26:23.178Z,9.70
2022-11-05T13:28:54.297Z,9.80
2022-11-05T13:31:23.206Z,9.80
2022-11-05T13:33:50.975Z,9.80
2022-11-05T13:36:40.378Z,9.90
2022-11-05T13:39:25.734Z,9.90
2022-11-05T13:41:52.493Z,9.90
2022-11-05T13:44:28.089Z,10.00
2022-11-05T13:46:58.014Z,9.90
2022-11-05T13:49:30.753Z,10.00
2022-11-05T13:52:00.570Z,9.90
2022-11-05T13:54:46.048Z,9.90
2022-11-05T13:57:21.093Z,9.90
2022-11-05T13:59:47.971Z,9.80
2022-11-05T14:02:19.818Z,9.80
2022-11-05T14:04:55.499Z,9.80
2022-11-05T14:07:28.045Z,9.80
2022-11-05T14:10:15.251Z,9.80
2022-11-05T14:12:46.601Z,9.70
2022-11-05T14:15:22.668Z,9.60
2022-11-05T14:17:52.553Z,9.60
2022-11-05T14:20:31.682Z,9.60
2022-11-05T14:23:17.471Z,9.60
2022-11-05T14:25:44.315Z,9.50
2022-11-05T14:28:30.067Z,9.40
2022-11-05T14:30:56.962Z,9.40
2022-11-05T14:33:27.007Z,9.40
2022-11-05T14:36:13.794Z,9.30
2022-11-05T14:38:54.466Z,9.30
2022-11-05T14:41:21.552Z,9.30
2022-11-05T14:43:53.815Z,9.20
2022-11-05T14:46:20.822Z,9.10
2022-11-05T14:48:52.905Z,9.10
2022-11-05T14:51:31.263Z,9.10
2022-11-05T14:54:08.894Z,9.10
2022-11-05T14:56:42.707Z,9.00
2022-11-05T14:59:26.841Z,9.00
2022-11-05T15:01:53.724Z,9.00
2022-11-05T15:04:20.714Z,9.00
2022-11-05T15:07:03.081Z,9.00
2022-11-05T15:09:34.136Z,8.90
2022-11-05T15:12:04.118Z,9.00
2022-11-05T15:14:33.930Z,8.90
2022-11-05T15:17:12.381Z,8.90
2022-11-05T15:19:41.336Z,8.90
2022-11-05T15:22:13.098Z,8.90
2022-11-05T15:24:42.034Z,8.90
2022-11-05T15:27:08.796Z,8.80
2022-11-05T15:29:35.671Z,8.80
2022-11-05T15:32:02.834Z,8.80
2022-11-05T15:34:31.998Z,8.80
2022-11-05T15:37:00.555Z,8.70
2022-11-05T15:39:33.656Z,8.70
2022-11-05T15:42:02.657Z,8.60
2022-11-05T15:44:31.371Z,8.60
2022-11-05T15:47:08.732Z,8.60
2022-11-05T15:49:35.673Z,8.60
2022-11-05T15:52:02.574Z,8.60
2022-11-05T15:54:31.129Z,8.50
2022-11-05T15:56:59.637Z,8.50
2022-11-05T15:59:27.844Z,8.50
2022-11-05T16:02:02.146Z,8.40
2022-11-05T16:04:30.574Z,8.40
2022-11-05T16:06:58.985Z,8.40
2022-11-05T16:09:28.335Z,8.40
2022-11-05T16:12:14.867Z,8.40
2022-11-05T16:14:42.037Z,8.40
2022-11-05T16:17:19.880Z,8.30
2022-11-05T16:19:47.162Z,8.30
2022-11-05T16:22:14.139Z,8.30
2022-11-05T16:24:41.086Z,8.30
2022-11-05T16:27:18.974Z,8.30
2022-11-05T16:29:51.438Z,8.30
2022-11-05T16:32:29.782Z,8.30
2022-11-05T16:34:59.483Z,8.30
2022-11-05T16:37:27.106Z,8.20
2022-11-05T16:39:53.988Z,8.20
2022-11-05T16:42:23.631Z,8.10
2022-11-05T16:44:51.110Z,8.10
2022-11-05T16:47:18.811Z,8.10
2022-11-05T16:49:45.952Z,8.00
2022-11-05T16:52:13.087Z,8.00
2022-11-05T16:54:39.906Z,8.00
2022-11-05T16:57:08.154Z,8.00
2022-11-05T16:59:35.137Z,8.00
2022-11-05T17:02:02.224Z,8.00
2022-11-05T17:04:29.110Z,8.00
2022-11-05T17:06:55.901Z,7.90
2022-11-05T17:09:22.707Z,7.90
2022-11-05T17:11:49.642Z,7.80
2022-11-05T17:14:16.574Z,7.80
2022-11-05T17:16:43.483Z,7.80
2022-11-05T17:19:13.913Z,7.70
2022-11-05T17:21:48.122Z,7.70
2022-11-05T17:24:15.191Z,7.70
2022-11-05T17:26:42.077Z,7.70
2022-11-05T17:29:09.160Z,7.60
2022-11-05T17:31:36.175Z,7.60
2022-11-05T17:34:03.068Z,7.60
2022-11-05T17:36:29.953Z,7.60
2022-11-05T17:38:57.198Z,7.60
2022-11-05T17:41:24.596Z,7.50
2022-11-05T17:43:55.757Z,7.50
2022-11-05T17:46:23.003Z,7.50
2022-11-05T17:48:50.082Z,7.50
2022-11-05T17:51:18.787Z,7.40
2022-11-05T17:53:46.766Z,7.40
2022-11-05T17:56:18.435Z,7.50
2022-11-05T17:58:51.681Z,7.40
2022-11-05T18:01:23.706Z,7.40
2022-11-05T18:03:50.684Z,7.40
2022-11-05T18:06:17.693Z,7.40
2022-11-05T18:08:44.813Z,7.40
2022-11-05T18:11:11.673Z,7.30
2022-11-05T18:13:39.089Z,7.30
2022-11-05T18:16:06.132Z,7.20
2022-11-05T18:18:33.072Z,7.30
2022-11-05T18:21:00.157Z,7.20
2022-11-05T18:23:27.186Z,7.20
2022-11-05T18:25:56.547Z,7.20
2022-11-05T18:28:23.449Z,7.10
2022-11-05T18:30:51.062Z,7.10
2022-11-05T18:33:17.947Z,7.10
2022-11-05T18:35:45.238Z,7.10
2022-11-05T18:38:12.182Z,7.10
2022-11-05T18:40:39.129Z,7.00
2022-11-05T18:43:06.304Z,7.00
2022-11-05T18:45:33.543Z,7.00
2022-11-05T18:48:01.747Z,7.00
2022-11-05T18:50:29.262Z,6.90
2022-11-05T18:52:56.237Z,7.00
2022-11-05T18:55:23.833Z,6.90
2022-11-05T18:57:50.712Z,6.90
2022-11-05T19:00:17.664Z,6.90
2022-11-05T19:02:44.841Z,7.00
2022-11-05T19:05:28.703Z,6.90
2022-11-05T19:07:56.598Z,6.90
2022-11-05T19:10:23.408Z,6.80
2022-11-05T19:12:50.388Z,6.80
2022-11-05T19:15:17.422Z,6.80
2022-11-05T19:17:44.388Z,6.80
2022-11-05T19:20:12.244Z,6.80
2022-11-05T19:22:39.207Z,6.80
2022-11-05T19:25:06.459Z,6.80
2022-11-05T19:27:35.000Z,6.80
2022-11-05T19:30:02.165Z,6.80
2022-11-05T19:32:29.440Z,6.80
2022-11-05T19:34:56.235Z,6.80
2022-11-05T19:37:23.240Z,6.80
2022-11-05T19:39:50.072Z,6.80
2022-11-05T19:42:16.930Z,6.70
2022-11-05T19:44:44.190Z,6.70
2022-11-05T19:47:11.015Z,6.60
2022-11-05T19:49:38.020Z,6.70
2022-11-05T19:52:04.856Z,6.70
2022-11-05T19:54:32.128Z,6.70
2022-11-05T19:56:59.158Z,6.60
2022-11-05T19:59:26.231Z,6.60
2022-11-05T20:01:53.337Z,6.60
2022-11-05T20:04:20.509Z,6.60
2022-11-05T20:06:47.366Z,6.60
2022-11-05T20:09:21.766Z,6.70
2022-11-05T20:11:50.087Z,6.70
2022-11-05T20:14:17.275Z,6.70
2022-11-05T20:16:45.483Z,6.70
2022-11-05T20:19:16.934Z,6.70
2022-11-05T20:21:44.431Z,6.80
2022-11-05T20:24:12.329Z,6.80
2022-11-05T20:26:39.322Z,6.80
2022-11-05T20:29:06.441Z,6.80
2022-11-05T20:31:33.727Z,6.80
2022-11-05T20:34:00.586Z,6.80
2022-11-05T20:36:27.532Z,6.80
2022-11-05T20:38:55.923Z,6.80
2022-11-05T20:41:23.340Z,6.70
2022-11-05T20:43:50.335Z,6.80
2022-11-05T20:46:18.277Z,6.80
2022-11-05T20:48:45.383Z,6.70
2022-11-05T20:51:14.004Z,6.70
2022-11-05T20:53:41.081Z,6.70
2022-11-05T20:56:11.031Z,6.70
2022-11-05T20:58:38.269Z,6.70
2022-11-05T21:01:05.744Z,6.70
2022-11-05T21:03:33.028Z,6.70
2022-11-05T21:06:04.211Z,6.70
2022-11-05T21:08:31.872Z,6.60
2022-11-05T21:10:59.360Z,6.70
2022-11-05T21:13:26.891Z,6.70
2022-11-05T21:15:54.968Z,6.70
2022-11-05T21:18:23.405Z,6.60
2022-11-05T21:20:50.826Z,6.60
2022-11-05T21:23:18.189Z,6.50
2022-11-05T21:25:45.359Z,6.50
2022-11-05T21:28:13.454Z,6.50
2022-11-05T21:30:47.783Z,6.50
2022-11-05T21:33:15.414Z,6.50
2022-11-05T21:35:44.381Z,6.50
2022-11-05T21:38:12.030Z,6.50
2022-11-05T21:40:39.466Z,6.50
2022-11-05T21:43:07.088Z,6.40
2022-11-05T21:45:34.169Z,6.50
2022-11-05T21:48:01.021Z,6.40
2022-11-05T21:50:46.475Z,6.40
2022-11-05T21:53:32.601Z,6.40
2022-11-05T21:56:18.152Z,6.30
2022-11-05T21:59:03.704Z,6.30
2022-11-05T22:01:30.828Z,6.40
2022-11-05T22:04:01.882Z,6.30
2022-11-05T22:06:32.243Z,6.30
2022-11-05T22:08:59.333Z,6.30
2022-11-05T22:11:26.237Z,6.40
2022-11-05T22:13:53.261Z,6.40
2022-11-05T22:16:20.250Z,6.40
2022-11-05T22:18:47.064Z,6.40
2022-11-05T22:21:18.311Z,6.40
2022-11-05T22:23:45.266Z,6.40
2022-11-05T22:26:12.291Z,6.40
2022-11-05T22:28:39.103Z,6.40
2022-11-05T22:31:12.023Z,6.30
2022-11-05T22:33:38.972Z,6.30
2022-11-05T22:36:05.998Z,6.30
2022-11-05T22:38:33.177Z,6.40
2022-11-05T22:41:00.304Z,6.40
2022-11-05T22:43:27.559Z,6.40
2022-11-05T22:45:54.498Z,6.40
2022-11-05T22:48:21.464Z,6.40
2022-11-05T22:50:48.227Z,6.40
2022-11-05T22:53:15.102Z,6.40
2022-11-05T22:55:41.901Z,6.40
2022-11-05T22:58:08.745Z,6.40
2022-11-05T23:00:36.715Z,6.30
2022-11-05T23:03:03.802Z,6.30
2022-11-05T23:05:30.754Z,6.30
2022-11-05T23:08:16.324Z,6.30
2022-11-05T23:11:01.676Z,6.30
2022-11-05T23:13:28.674Z,6.30
2022-11-05T23:16:13.855Z,6.30
2022-11-05T23:18:59.433Z,6.30
2022-11-05T23:21:44.836Z,6.40
2022-11-05T23:24:13.116Z,6.40
2022-11-05T23:26:52.275Z,6.50
2022-11-05T23:29:20.392Z,6.40
2022-11-05T23:32:05.970Z,6.40
2022-11-05T23:34:32.803Z,6.40
2022-11-05T23:37:17.922Z,6.50
2022-11-05T23:39:44.837Z,6.50
2022-11-05T23:42:30.252Z,6.50
2022-11-05T23:45:16.101Z,6.40
2022-11-05T23:48:01.662Z,6.50
2022-11-05T23:50:29.805Z,6.40
2022-11-05T23:52:56.707Z,6.50
2022-11-05T23:55:24.106Z,6.50
2022-11-05T23:57:51.116Z,6.50
